Time;durP1;ratioP1;P1;durP2;ratioP2;P2;SDS_P1;SDS_P2;PMS_P1;PMS_P2;Temp;Humidity;BMP_temperature;BMP_pressure;BME280_temperature;BME280_humidity;BME280_pressure;Samples;Min_cycle;Max_cycle;Signal;HPM_P1;HPM_P2
2022/01/29 00:00:08;;;;;;;;;22.75;20.75;;;;;;;;5063338;28;11612;-77
2022/01/29 00:02:35;;;;;;;;;20.00;18.00;;;;;;;;5064551;28;11679;-77
2022/01/29 00:05:03;;;;;;;;;24.50;22.00;;;;;;;;5064394;28;13352;-77
2022/01/29 00:07:30;;;;;;;;;21.00;21.00;;;;;;;;5064893;28;11513;-78
2022/01/29 00:10:03;;;;;;;;;23.50;21.75;;;;;;;;5066461;28;12388;-76
2022/01/29 00:12:30;;;;;;;;;17.75;14.25;;;;;;;;5064614;28;11482;-77
2022/01/29 00:14:58;;;;;;;;;19.00;15.50;;;;;;;;5063995;28;11497;-77
2022/01/29 00:17:27;;;;;;;;;16.25;14.00;;;;;;;;5065558;28;11578;-77
2022/01/29 00:19:54;;;;;;;;;19.75;19.75;;;;;;;;5062961;28;12346;-77
2022/01/29 00:22:21;;;;;;;;;17.00;17.00;;;;;;;;5064491;28;11547;-76
2022/01/29 00:24:49;;;;;;;;;17.00;17.00;;;;;;;;5064254;28;11509;-76
2022/01/29 00:27:19;;;;;;;;;18.75;18.25;;;;;;;;5064848;28;11539;-76
2022/01/29 00:29:46;;;;;;;;;18.50;17.75;;;;;;;;5059840;28;11502;-76
2022/01/29 00:32:14;;;;;;;;;20.00;20.00;;;;;;;;5096192;28;11466;-76
2022/01/29 00:34:43;;;;;;;;;18.25;16.75;;;;;;;;5065785;28;11487;-76
2022/01/29 00:37:10;;;;;;;;;17.75;17.75;;;;;;;;5062334;28;11528;-75
2022/01/29 00:39:38;;;;;;;;;17.50;16.50;;;;;;;;5059525;28;11540;-77
2022/01/29 00:42:06;;;;;;;;;32.75;22.75;;;;;;;;5063511;28;11551;-77
2022/01/29 00:44:33;;;;;;;;;17.50;14.75;;;;;;;;5065707;28;11521;-76
2022/01/29 00:47:01;;;;;;;;;30.50;21.00;;;;;;;;5063597;28;11521;-77
2022/01/29 00:49:28;;;;;;;;;26.00;19.75;;;;;;;;5064253;28;11540;-77
2022/01/29 00:51:57;;;;;;;;;14.25;14.25;;;;;;;;5065272;28;11641;-77
2022/01/29 00:54:24;;;;;;;;;9.00;7.00;;;;;;;;5063743;28;11637;-77
2022/01/29 00:56:52;;;;;;;;;16.75;16.75;;;;;;;;5088288;28;11631;-76
2022/01/29 00:59:19;;;;;;;;;27.50;18.00;;;;;;;;5063947;28;11522;-77
2022/01/29 01:01:46;;;;;;;;;21.00;17.25;;;;;;;;5064259;28;12316;-76
2022/01/29 01:04:13;;;;;;;;;26.75;24.25;;;;;;;;5064027;28;11638;-77
2022/01/29 01:06:40;;;;;;;;;18.25;17.00;;;;;;;;5052933;28;11540;-77
2022/01/29 01:09:09;;;;;;;;;23.50;19.50;;;;;;;;5058100;28;11620;-76
2022/01/29 01:11:36;;;;;;;;;22.75;19.50;;;;;;;;5062664;28;11536;-77
2022/01/29 01:14:04;;;;;;;;;24.50;22.00;;;;;;;;5062069;28;11474;-76
2022/01/29 01:16:31;;;;;;;;;23.25;21.00;;;;;;;;5060401;28;11513;-76
2022/01/29 01:18:58;;;;;;;;;23.50;19.75;;;;;;;;5051976;28;11518;-77
2022/01/29 01:21:26;;;;;;;;;16.25;16.25;;;;;;;;5056566;28;11545;-77
2022/01/29 01:23:53;;;;;;;;;23.25;20.75;;;;;;;;5064449;28;11546;-76
2022/01/29 01:26:22;;;;;;;;;22.75;21.25;;;;;;;;5064699;28;11597;-77
2022/01/29 01:28:49;;;;;;;;;26.50;23.50;;;;;;;;5059953;28;12428;-77
2022/01/29 01:31:16;;;;;;;;;35.75;29.25;;;;;;;;5061897;28;11448;-77
2022/01/29 01:33:46;;;;;;;;;24.50;22.25;;;;;;;;5059822;28;11503;-77
2022/01/29 01:36:15;;;;;;;;;30.00;23.00;;;;;;;;5061479;28;12425;-77
2022/01/29 01:38:48;;;;;;;;;26.75;26.50;;;;;;;;5060889;28;11599;-78
2022/01/29 01:41:20;;;;;;;;;24.75;19.75;;;;;;;;5060217;28;11579;-77
2022/01/29 01:43:49;;;;;;;;;28.00;25.75;;;;;;;;5057373;28;11530;-77
2022/01/29 01:46:17;;;;;;;;;24.25;22.25;;;;;;;;5054784;28;11489;-77
2022/01/29 01:48:44;;;;;;;;;22.00;22.00;;;;;;;;5060287;28;11558;-77
2022/01/29 01:51:11;;;;;;;;;32.50;29.00;;;;;;;;5059897;28;11542;-78
2022/01/29 01:53:40;;;;;;;;;27.25;24.75;;;;;;;;5059402;28;11578;-78
2022/01/29 01:56:07;;;;;;;;;36.50;27.50;;;;;;;;5063261;28;11527;-77
2022/01/29 01:58:35;;;;;;;;;29.50;24.25;;;;;;;;5061307;28;11523;-77
2022/01/29 02:01:03;;;;;;;;;25.75;22.75;;;;;;;;5060498;28;11474;-77
2022/01/29 02:03:31;;;;;;;;;26.50;25.50;;;;;;;;5054341;28;11551;-77
2022/01/29 02:05:59;;;;;;;;;21.50;21.50;;;;;;;;5061440;28;11524;-76
2022/01/29 02:08:27;;;;;;;;;26.75;26.75;;;;;;;;5060743;28;11518;-77
2022/01/29 02:11:01;;;;;;;;;26.00;22.00;;;;;;;;5063661;28;11523;-77
2022/01/29 02:13:29;;;;;;;;;26.75;22.00;;;;;;;;5056821;28;11533;-76
2022/01/29 02:15:57;;;;;;;;;27.75;21.00;;;;;;;;5063110;28;11543;-76
2022/01/29 02:18:26;;;;;;;;;23.50;21.75;;;;;;;;5061354;28;12742;-77
2022/01/29 02:20:54;;;;;;;;;29.00;20.75;;;;;;;;5059843;28;11616;-77
2022/01/29 02:23:22;;;;;;;;;24.75;23.00;;;;;;;;5063190;28;11538;-77
2022/01/29 02:25:50;;;;;;;;;26.00;23.75;;;;;;;;5058479;28;11496;-77
2022/01/29 02:28:19;;;;;;;;;29.50;23.00;;;;;;;;5062132;28;11525;-77
2022/01/29 02:30:49;;;;;;;;;30.75;29.25;;;;;;;;5060719;28;11485;-77
2022/01/29 02:33:18;;;;;;;;;18.00;18.00;;;;;;;;5061712;28;11504;-76
2022/01/29 02:35:47;;;;;;;;;19.50;19.50;;;;;;;;5062009;28;11540;-77
2022/01/29 02:38:16;;;;;;;;;25.25;25.00;;;;;;;;5061141;28;11516;-77
2022/01/29 02:40:47;;;;;;;;;29.25;22.25;;;;;;;;5062165;28;12242;-77
2022/01/29 02:43:16;;;;;;;;;19.50;19.50;;;;;;;;5061358;28;11560;-78
2022/01/29 02:45:44;;;;;;;;;21.50;19.00;;;;;;;;5062805;28;11506;-77
2022/01/29 02:48:12;;;;;;;;;28.75;25.25;;;;;;;;5060776;28;11527;-77
2022/01/29 02:50:39;;;;;;;;;20.50;19.75;;;;;;;;5062881;28;11505;-77
2022/01/29 02:53:08;;;;;;;;;18.25;17.50;;;;;;;;5058483;28;11557;-76
2022/01/29 02:55:36;;;;;;;;;26.25;22.00;;;;;;;;5057026;28;11536;-76
2022/01/29 02:58:05;;;;;;;;;17.50;17.50;;;;;;;;5062344;28;11606;-76
2022/01/29 03:00:32;;;;;;;;;21.00;15.50;;;;;;;;5060765;28;11507;-77
2022/01/29 03:03:00;;;;;;;;;18.50;18.50;;;;;;;;5059699;28;11498;-77
2022/01/29 03:05:27;;;;;;;;;23.50;23.50;;;;;;;;5061687;28;11619;-77
2022/01/29 03:07:54;;;;;;;;;17.25;17.25;;;;;;;;5060784;28;11654;-77
2022/01/29 03:10:23;;;;;;;;;23.25;16.25;;;;;;;;5060185;28;11503;-78
2022/01/29 03:12:50;;;;;;;;;11.50;11.25;;;;;;;;5060907;28;12543;-77
2022/01/29 03:15:19;;;;;;;;;18.00;18.00;;;;;;;;5061142;28;11469;-77
2022/01/29 03:17:48;;;;;;;;;23.25;17.50;;;;;;;;5059679;28;12362;-77
2022/01/29 03:20:15;;;;;;;;;12.50;10.00;;;;;;;;5061738;28;11529;-77
2022/01/29 03:22:42;;;;;;;;;19.25;17.50;;;;;;;;5061407;28;11610;-76
2022/01/29 03:25:10;;;;;;;;;21.25;17.00;;;;;;;;5061193;28;11539;-77
2022/01/29 03:27:37;;;;;;;;;18.75;16.25;;;;;;;;5059251;28;11492;-77
2022/01/29 03:30:06;;;;;;;;;14.75;14.75;;;;;;;;5061804;28;11490;-77
2022/01/29 03:32:35;;;;;;;;;20.50;19.50;;;;;;;;5064708;28;11488;-77
2022/01/29 03:35:03;;;;;;;;;26.00;21.25;;;;;;;;5065276;28;11517;-77
2022/01/29 03:37:31;;;;;;;;;16.00;15.50;;;;;;;;5061025;28;11533;-76
2022/01/29 03:40:01;;;;;;;;;15.00;13.25;;;;;;;;5064344;28;11495;-76
2022/01/29 03:42:32;;;;;;;;;17.00;17.00;;;;;;;;5065941;28;11513;-77
2022/01/29 03:44:59;;;;;;;;;17.00;14.75;;;;;;;;5061292;28;11536;-77
2022/01/29 03:47:27;;;;;;;;;15.50;13.25;;;;;;;;5064768;28;11503;-76
2022/01/29 03:49:56;;;;;;;;;16.50;16.00;;;;;;;;5064975;28;11517;-76
2022/01/29 03:52:23;;;;;;;;;13.00;9.25;;;;;;;;5063813;28;11506;-76
2022/01/29 03:54:51;;;;;;;;;17.75;16.00;;;;;;;;5065189;28;11672;-76
2022/01/29 03:57:18;;;;;;;;;15.50;15.50;;;;;;;;5065760;28;11542;-77
2022/01/29 03:59:46;;;;;;;;;15.75;14.50;;;;;;;;5063080;28;11550;-76
2022/01/29 04:02:13;;;;;;;;;13.75;13.75;;;;;;;;5062972;28;11483;-77
2022/01/29 04:04:40;;;;;;;;;16.00;14.50;;;;;;;;5064247;28;12222;-76
2022/01/29 04:07:11;;;;;;;;;12.00;11.50;;;;;;;;5064895;28;11516;-77
2022/01/29 04:09:39;;;;;;;;;17.50;15.25;;;;;;;;5064443;28;11491;-78
2022/01/29 04:12:07;;;;;;;;;14.50;14.50;;;;;;;;5065088;28;11499;-77
2022/01/29 04:14:38;;;;;;;;;19.75;13.75;;;;;;;;5064928;28;11498;-76
2022/01/29 04:17:05;;;;;;;;;14.25;14.00;;;;;;;;5064973;28;11525;-76
2022/01/29 04:19:33;;;;;;;;;14.00;14.00;;;;;;;;5063476;28;11505;-76
2022/01/29 04:22:00;;;;;;;;;16.75;16.75;;;;;;;;5062923;28;11512;-76
2022/01/29 04:24:29;;;;;;;;;15.25;14.00;;;;;;;;5061970;28;11540;-76
2022/01/29 04:26:56;;;;;;;;;16.00;13.00;;;;;;;;5065293;28;11499;-76
2022/01/29 04:29:26;;;;;;;;;10.75;10.75;;;;;;;;5064217;28;11623;-76
2022/01/29 04:32:05;;;;;;;;;18.00;18.00;;;;;;;;5062644;28;11501;-76
2022/01/29 04:34:32;;;;;;;;;14.50;14.50;;;;;;;;5059452;28;11490;-76
2022/01/29 04:37:00;;;;;;;;;21.75;10.75;;;;;;;;5063042;28;11589;-76
2022/01/29 04:39:29;;;;;;;;;14.75;14.75;;;;;;;;5062379;28;11555;-77
2022/01/29 04:41:56;;;;;;;;;18.50;16.25;;;;;;;;5063168;28;11498;-76
2022/01/29 04:44:23;;;;;;;;;17.00;14.25;;;;;;;;5064529;28;11355;-77
2022/01/29 04:46:51;;;;;;;;;17.50;13.00;;;;;;;;5064092;28;11324;-77
2022/01/29 04:49:18;;;;;;;;;16.00;14.00;;;;;;;;5063261;28;11281;-77
2022/01/29 04:51:45;;;;;;;;;13.00;13.00;;;;;;;;5065299;28;11518;-77
2022/01/29 04:54:12;;;;;;;;;17.50;15.00;;;;;;;;5063244;28;11170;-77
2022/01/29 04:56:41;;;;;;;;;8.00;8.00;;;;;;;;5067022;28;11132;-77
2022/01/29 04:59:08;;;;;;;;;21.25;14.00;;;;;;;;5063830;28;11125;-76
2022/01/29 05:01:35;;;;;;;;;15.00;14.75;;;;;;;;5063778;28;11167;-77
2022/01/29 05:04:03;;;;;;;;;18.75;12.50;;;;;;;;5065814;28;11177;-76
2022/01/29 05:06:30;;;;;;;;;17.75;15.25;;;;;;;;5065286;28;12084;-76
2022/01/29 05:08:57;;;;;;;;;13.25;10.75;;;;;;;;5065360;28;11238;-77
2022/01/29 05:11:24;;;;;;;;;14.25;13.00;;;;;;;;5067821;28;11273;-76
2022/01/29 05:13:53;;;;;;;;;10.25;10.25;;;;;;;;5063217;28;11255;-77
2022/01/29 05:27:18;;;;;;;;;14.25;14.25;;;;;;;;5065075;28;11958;-77
2022/01/29 05:29:46;;;;;;;;;13.75;13.75;;;;;;;;5068121;28;11110;-77
2022/01/29 05:32:15;;;;;;;;;18.00;14.25;;;;;;;;5062940;28;11105;-77
2022/01/29 05:34:42;;;;;;;;;15.75;15.00;;;;;;;;5064142;28;11205;-78
2022/01/29 05:37:09;;;;;;;;;16.75;13.50;;;;;;;;5061587;28;11228;-76
2022/01/29 05:39:37;;;;;;;;;13.25;9.75;;;;;;;;5063728;28;11237;-77
2022/01/29 05:42:05;;;;;;;;;6.50;5.25;;;;;;;;5061936;28;10982;-77
2022/01/29 05:44:32;;;;;;;;;17.25;14.75;;;;;;;;5059503;28;11067;-77
2022/01/29 05:47:01;;;;;;;;;12.50;12.00;;;;;;;;5060868;28;11329;-77
2022/01/29 05:49:28;;;;;;;;;10.00;10.00;;;;;;;;5062820;28;11013;-77
2022/01/29 05:51:56;;;;;;;;;20.00;14.00;;;;;;;;5062029;28;11085;-76
2022/01/29 05:54:23;;;;;;;;;20.25;16.50;;;;;;;;5053796;28;11170;-76
2022/01/29 05:56:50;;;;;;;;;13.25;13.25;;;;;;;;5063807;28;11188;-76
2022/01/29 05:59:18;;;;;;;;;11.25;11.25;;;;;;;;5061981;28;11150;-77
2022/01/29 06:01:45;;;;;;;;;11.50;11.50;;;;;;;;5059141;28;11130;-77
2022/01/29 06:04:13;;;;;;;;;16.00;12.25;;;;;;;;5062753;28;11040;-76
2022/01/29 06:06:41;;;;;;;;;13.50;13.50;;;;;;;;5062418;28;10980;-77
2022/01/29 06:09:08;;;;;;;;;13.50;10.50;;;;;;;;5061951;28;11125;-76
2022/01/29 06:11:35;;;;;;;;;12.75;12.75;;;;;;;;5074012;28;11027;-77
2022/01/29 06:14:03;;;;;;;;;12.75;11.50;;;;;;;;5062359;28;11088;-76
2022/01/29 06:16:30;;;;;;;;;11.00;11.00;;;;;;;;5060678;28;11306;-77
2022/01/29 06:18:57;;;;;;;;;9.75;9.75;;;;;;;;5056990;28;10946;-77
2022/01/29 06:21:26;;;;;;;;;9.50;9.50;;;;;;;;5059567;28;10956;-77
2022/01/29 06:23:53;;;;;;;;;17.50;10.00;;;;;;;;5063301;28;10991;-77
2022/01/29 06:26:21;;;;;;;;;8.25;7.00;;;;;;;;5062483;28;11138;-76
2022/01/29 06:28:48;;;;;;;;;8.75;8.75;;;;;;;;5061847;28;11066;-76
2022/01/29 06:31:15;;;;;;;;;11.25;9.75;;;;;;;;5061265;28;10882;-76
2022/01/29 06:33:46;;;;;;;;;14.00;11.00;;;;;;;;5064562;28;11060;-76
2022/01/29 06:36:14;;;;;;;;;12.00;10.25;;;;;;;;5062893;28;11052;-77
2022/01/29 06:38:43;;;;;;;;;11.75;11.75;;;;;;;;5060076;28;10874;-75
2022/01/29 06:41:11;;;;;;;;;13.75;11.50;;;;;;;;5059926;28;10998;-76
2022/01/29 06:43:38;;;;;;;;;8.25;6.50;;;;;;;;5060238;28;10889;-76
2022/01/29 06:46:05;;;;;;;;;10.25;7.50;;;;;;;;5060806;28;10863;-77
2022/01/29 06:48:32;;;;;;;;;10.00;10.00;;;;;;;;5060631;28;12162;-78
2022/01/29 06:50:59;;;;;;;;;9.00;9.00;;;;;;;;5059456;28;10814;-78
2022/01/29 06:53:27;;;;;;;;;13.25;9.00;;;;;;;;5059539;28;10912;-78
2022/01/29 06:55:55;;;;;;;;;10.00;9.00;;;;;;;;5062126;28;10903;-79
2022/01/29 06:58:22;;;;;;;;;7.75;7.00;;;;;;;;5062582;28;10861;-77
2022/01/29 07:00:50;;;;;;;;;8.50;8.00;;;;;;;;5060956;28;11597;-77
2022/01/29 07:03:17;;;;;;;;;7.50;7.50;;;;;;;;5063347;28;10932;-78
2022/01/29 07:05:44;;;;;;;;;9.50;9.00;;;;;;;;5065786;28;10925;-80
2022/01/29 07:08:11;;;;;;;;;11.00;11.00;;;;;;;;5066541;28;10861;-77
2022/01/29 07:10:39;;;;;;;;;9.00;9.00;;;;;;;;5065034;28;10825;-79
2022/01/29 07:13:08;;;;;;;;;10.00;10.00;;;;;;;;5066262;28;10735;-81
2022/01/29 07:15:36;;;;;;;;;11.00;10.75;;;;;;;;5053872;28;10923;-77
2022/01/29 07:18:03;;;;;;;;;9.00;6.25;;;;;;;;5064175;28;10728;-79
2022/01/29 07:20:31;;;;;;;;;13.00;10.75;;;;;;;;5066005;28;10952;-80
2022/01/29 07:22:58;;;;;;;;;32.25;24.75;;;;;;;;5061924;28;10818;-78
2022/01/29 07:25:25;;;;;;;;;19.25;16.00;;;;;;;;5064981;28;11537;-80
2022/01/29 07:27:53;;;;;;;;;7.00;7.00;;;;;;;;5062262;28;10968;-78
2022/01/29 07:30:22;;;;;;;;;9.25;9.25;;;;;;;;5064455;28;11511;-76
2022/01/29 07:32:49;;;;;;;;;10.75;9.50;;;;;;;;5063435;28;10796;-78
2022/01/29 07:35:17;;;;;;;;;8.75;8.75;;;;;;;;5061290;28;10963;-77
2022/01/29 07:37:45;;;;;;;;;9.00;8.50;;;;;;;;5058198;28;10894;-76
2022/01/29 07:40:12;;;;;;;;;7.50;7.50;;;;;;;;5064756;28;10744;-77
2022/01/29 07:42:39;;;;;;;;;12.25;9.00;;;;;;;;5062653;28;10912;-80
2022/01/29 07:45:07;;;;;;;;;9.25;9.25;;;;;;;;5060641;28;10896;-79
2022/01/29 07:47:36;;;;;;;;;9.75;9.75;;;;;;;;5060700;28;10920;-76
2022/01/29 07:50:04;;;;;;;;;8.00;8.00;;;;;;;;5064607;28;10809;-78
2022/01/29 07:52:32;;;;;;;;;7.75;7.00;;;;;;;;5060143;28;10875;-80
2022/01/29 07:54:59;;;;;;;;;6.50;6.50;;;;;;;;5066163;28;10835;-78
2022/01/29 07:57:27;;;;;;;;;3.50;3.50;;;;;;;;5064784;28;10699;-79
2022/01/29 07:59:55;;;;;;;;;6.75;5.25;;;;;;;;5063580;28;10809;-78
2022/01/29 08:02:22;;;;;;;;;6.75;6.50;;;;;;;;5062922;28;10654;-72
2022/01/29 08:04:50;;;;;;;;;6.25;6.25;;;;;;;;5062252;28;10869;-75
2022/01/29 08:07:18;;;;;;;;;5.00;5.00;;;;;;;;5061213;28;10738;-78
2022/01/29 08:09:45;;;;;;;;;6.00;6.00;;;;;;;;5061646;28;10619;-77
2022/01/29 08:12:13;;;;;;;;;5.00;5.00;;;;;;;;5064066;28;10636;-76
2022/01/29 08:14:40;;;;;;;;;7.50;6.00;;;;;;;;5060123;28;10687;-82
2022/01/29 08:17:08;;;;;;;;;7.75;6.25;;;;;;;;5063701;28;10595;-75
2022/01/29 08:19:35;;;;;;;;;0.00;0.00;;;;;;;;5054600;28;10737;-79
2022/01/29 08:22:04;;;;;;;;;3.00;3.00;;;;;;;;5060805;28;10510;-77
2022/01/29 08:24:31;;;;;;;;;4.50;4.50;;;;;;;;5060632;28;10634;-76
2022/01/29 08:26:59;;;;;;;;;6.75;6.00;;;;;;;;5067222;28;10659;-83
2022/01/29 08:29:26;;;;;;;;;5.25;5.25;;;;;;;;5068934;28;10709;-79
2022/01/29 08:31:53;;;;;;;;;6.25;4.00;;;;;;;;5061789;28;10717;-77
2022/01/29 08:34:21;;;;;;;;;6.50;6.50;;;;;;;;5065380;28;10539;-83
2022/01/29 08:36:49;;;;;;;;;5.00;5.00;;;;;;;;5066218;28;10568;-76
2022/01/29 08:39:18;;;;;;;;;6.00;4.00;;;;;;;;5063427;28;10677;-73
2022/01/29 08:41:45;;;;;;;;;5.00;5.00;;;;;;;;5064265;28;10584;-75
2022/01/29 08:44:12;;;;;;;;;1.25;1.25;;;;;;;;5064598;28;10540;-79
2022/01/29 08:46:40;;;;;;;;;5.00;5.00;;;;;;;;5065717;28;10493;-76
2022/01/29 08:49:07;;;;;;;;;5.00;5.00;;;;;;;;5064959;28;10763;-80
2022/01/29 08:51:34;;;;;;;;;3.00;3.00;;;;;;;;5064580;28;10715;-80
2022/01/29 08:54:04;;;;;;;;;5.00;5.00;;;;;;;;5055110;28;10418;-80
2022/01/29 08:56:33;;;;;;;;;3.00;3.00;;;;;;;;5060339;28;10424;-76
2022/01/29 08:59:01;;;;;;;;;4.00;4.00;;;;;;;;5059535;28;10451;-81
2022/01/29 09:01:28;;;;;;;;;5.25;3.50;;;;;;;;5064188;28;10442;-76
2022/01/29 09:03:56;;;;;;;;;3.00;3.00;;;;;;;;5065695;28;10375;-82
2022/01/29 09:06:23;;;;;;;;;4.00;4.00;;;;;;;;5064341;28;10397;-79
2022/01/29 09:08:51;;;;;;;;;5.00;2.00;;;;;;;;5063789;28;10362;-81
2022/01/29 09:11:19;;;;;;;;;3.00;3.00;;;;;;;;5060793;28;10261;-80
2022/01/29 09:13:48;;;;;;;;;3.00;3.00;;;;;;;;5065240;28;10419;-77
2022/01/29 09:16:16;;;;;;;;;2.00;2.00;;;;;;;;5060587;28;10296;-81
2022/01/29 09:18:43;;;;;;;;;2.25;2.25;;;;;;;;5064051;28;10355;-81
2022/01/29 09:21:10;;;;;;;;;2.00;2.00;;;;;;;;5065221;28;10263;-80
2022/01/29 09:23:38;;;;;;;;;4.25;3.00;;;;;;;;5063980;28;10245;-82
2022/01/29 09:26:05;;;;;;;;;3.00;3.00;;;;;;;;5062890;28;10333;-73
2022/01/29 09:28:32;;;;;;;;;2.25;2.25;;;;;;;;5063293;28;10311;-75
2022/01/29 09:31:01;;;;;;;;;3.00;3.00;;;;;;;;5063910;28;10326;-76
2022/01/29 09:33:29;;;;;;;;;2.00;2.00;;;;;;;;5062917;28;10236;-80
2022/01/29 09:35:57;;;;;;;;;3.00;3.00;;;;;;;;5062029;28;10358;-79
2022/01/29 09:38:25;;;;;;;;;3.00;3.00;;;;;;;;5061928;28;10252;-75
2022/01/29 09:40:52;;;;;;;;;3.00;3.00;;;;;;;;5062220;28;10226;-80
2022/01/29 09:43:20;;;;;;;;;2.00;2.00;;;;;;;;5062318;28;10171;-82
2022/01/29 09:45:51;;;;;;;;;3.25;3.25;;;;;;;;5061234;28;10465;-81
2022/01/29 09:48:23;;;;;;;;;3.50;3.50;;;;;;;;5060961;28;11086;-80
2022/01/29 09:50:52;;;;;;;;;3.25;3.25;;;;;;;;5057738;28;10270;-78
2022/01/29 09:53:20;;;;;;;;;2.00;2.00;;;;;;;;5062381;28;11138;-75
2022/01/29 09:55:48;;;;;;;;;2.00;2.00;;;;;;;;5061858;28;10166;-77
2022/01/29 09:58:16;;;;;;;;;5.00;2.00;;;;;;;;5061763;28;10890;-78
2022/01/29 10:00:44;;;;;;;;;4.50;2.50;;;;;;;;5059701;28;10098;-84
2022/01/29 10:03:16;;;;;;;;;2.25;2.25;;;;;;;;5062693;28;10249;-75
2022/01/29 10:05:47;;;;;;;;;2.25;2.25;;;;;;;;5060925;28;10256;-79
2022/01/29 10:08:15;;;;;;;;;3.00;3.00;;;;;;;;5063050;28;10888;-77
2022/01/29 10:10:44;;;;;;;;;5.00;2.00;;;;;;;;5063699;28;10125;-78
2022/01/29 10:13:26;;;;;;;;;4.25;2.25;;;;;;;;5063203;28;10094;-77
2022/01/29 10:16:03;;;;;;;;;3.00;3.00;;;;;;;;5062387;28;10044;-74
2022/01/29 10:18:33;;;;;;;;;2.50;2.50;;;;;;;;5060600;28;10034;-74
2022/01/29 10:21:10;;;;;;;;;3.00;3.00;;;;;;;;5060016;28;10072;-70
2022/01/29 10:23:38;;;;;;;;;3.00;3.00;;;;;;;;5063592;28;10046;-73
2022/01/29 10:26:07;;;;;;;;;2.75;2.75;;;;;;;;5062406;28;10135;-69
2022/01/29 10:28:34;;;;;;;;;4.00;4.00;;;;;;;;5064036;28;10179;-75
2022/01/29 10:31:02;;;;;;;;;5.00;5.00;;;;;;;;5062606;28;9981;-70
2022/01/29 10:33:31;;;;;;;;;3.00;3.00;;;;;;;;5062525;28;10038;-71
2022/01/29 10:36:00;;;;;;;;;2.00;2.00;;;;;;;;5063483;28;9937;-70
2022/01/29 10:38:31;;;;;;;;;4.50;3.50;;;;;;;;5059710;28;10106;-72
2022/01/29 10:41:15;;;;;;;;;3.00;3.00;;;;;;;;5060248;28;10029;-69
2022/01/29 10:44:08;;;;;;;;;3.00;3.00;;;;;;;;5062393;28;10135;-71
2022/01/29 10:46:36;;;;;;;;;5.00;5.00;;;;;;;;5059403;28;10029;-83
2022/01/29 10:49:04;;;;;;;;;4.50;3.00;;;;;;;;5063669;28;10969;-81
2022/01/29 10:51:35;;;;;;;;;3.00;3.00;;;;;;;;5060018;28;9959;-80
2022/01/29 10:54:18;;;;;;;;;2.75;2.75;;;;;;;;5053924;28;9861;-77
2022/01/29 10:56:57;;;;;;;;;3.00;3.00;;;;;;;;5058681;28;9966;-75
2022/01/29 10:59:25;;;;;;;;;3.00;3.00;;;;;;;;5061605;28;9888;-78
2022/01/29 11:01:53;;;;;;;;;6.00;3.25;;;;;;;;5060933;28;9891;-73
2022/01/29 11:04:21;;;;;;;;;3.00;3.00;;;;;;;;5060053;28;10101;-77
2022/01/29 11:06:49;;;;;;;;;5.00;5.00;;;;;;;;5062401;28;10842;-74
2022/01/29 11:09:18;;;;;;;;;2.00;2.00;;;;;;;;5062456;28;9971;-74
2022/01/29 11:11:47;;;;;;;;;3.00;3.00;;;;;;;;5061071;28;9889;-78
2022/01/29 11:14:16;;;;;;;;;6.00;3.50;;;;;;;;5062826;28;10016;-73
2022/01/29 11:16:45;;;;;;;;;5.25;5.25;;;;;;;;5063666;28;9937;-74
2022/01/29 11:19:13;;;;;;;;;6.00;3.00;;;;;;;;5060815;28;9933;-77
2022/01/29 11:21:43;;;;;;;;;3.25;3.25;;;;;;;;5062355;28;9983;-78
2022/01/29 11:24:12;;;;;;;;;2.25;2.25;;;;;;;;5058590;28;9980;-73
2022/01/29 11:26:41;;;;;;;;;2.25;2.25;;;;;;;;5058057;28;9997;-78
2022/01/29 11:29:30;;;;;;;;;4.50;2.00;;;;;;;;5064751;28;9869;-75
2022/01/29 11:32:27;;;;;;;;;2.75;2.00;;;;;;;;5063212;28;9902;-80
2022/01/29 11:35:03;;;;;;;;;3.00;3.00;;;;;;;;5061065;28;9884;-71
2022/01/29 11:37:54;;;;;;;;;6.00;2.00;;;;;;;;5062436;28;10020;-72
2022/01/29 11:40:25;;;;;;;;;1.75;1.75;;;;;;;;5053816;28;9811;-75
2022/01/29 11:43:04;;;;;;;;;3.00;3.00;;;;;;;;5060074;28;9786;-71
2022/01/29 11:45:41;;;;;;;;;0.00;0.00;;;;;;;;5060344;28;9935;-75
2022/01/29 11:48:10;;;;;;;;;2.00;2.00;;;;;;;;5062255;28;9720;-74
2022/01/29 11:50:45;;;;;;;;;1.75;1.75;;;;;;;;5069905;28;9836;-76
2022/01/29 11:53:14;;;;;;;;;1.00;1.00;;;;;;;;5066764;28;9810;-76
2022/01/29 11:55:44;;;;;;;;;1.50;1.50;;;;;;;;5066990;28;9602;-80
2022/01/29 11:58:20;;;;;;;;;1.50;1.50;;;;;;;;5064434;28;9545;-84
2022/01/29 12:00:49;;;;;;;;;1.00;1.00;;;;;;;;5063368;28;9772;-73
2022/01/29 12:03:49;;;;;;;;;2.00;2.00;;;;;;;;5065350;28;9640;-76
2022/01/29 12:06:21;;;;;;;;;4.00;2.00;;;;;;;;5062214;28;10427;-76
2022/01/29 12:09:24;;;;;;;;;2.00;1.00;;;;;;;;5063524;28;9734;-75
2022/01/29 12:12:14;;;;;;;;;3.00;1.25;;;;;;;;5064442;28;9814;-76
2022/01/29 12:14:43;;;;;;;;;1.00;1.00;;;;;;;;5061401;28;9611;-75
2022/01/29 12:17:11;;;;;;;;;1.00;1.00;;;;;;;;5064205;28;9553;-75
2022/01/29 12:19:40;;;;;;;;;1.00;0.00;;;;;;;;5063956;28;9356;-73
2022/01/29 12:22:11;;;;;;;;;1.25;1.25;;;;;;;;5058768;28;9559;-73
2022/01/29 12:24:39;;;;;;;;;2.50;2.50;;;;;;;;5057802;28;9592;-76
2022/01/29 12:27:08;;;;;;;;;1.00;1.00;;;;;;;;5062262;28;9581;-73
2022/01/29 12:29:35;;;;;;;;;2.50;2.50;;;;;;;;5063028;28;9639;-75
2022/01/29 12:32:05;;;;;;;;;1.00;1.00;;;;;;;;5060323;28;9656;-73
2022/01/29 12:34:32;;;;;;;;;1.25;1.25;;;;;;;;5063127;28;9505;-75
2022/01/29 12:37:10;;;;;;;;;2.00;2.00;;;;;;;;5064642;28;9549;-79
2022/01/29 12:39:37;;;;;;;;;3.00;3.00;;;;;;;;5061527;28;9581;-74
2022/01/29 12:42:12;;;;;;;;;5.75;2.00;;;;;;;;5063396;28;9648;-78
2022/01/29 12:44:40;;;;;;;;;3.75;1.75;;;;;;;;5059925;28;9554;-74
2022/01/29 12:47:10;;;;;;;;;2.75;2.75;;;;;;;;5063865;28;9562;-75
2022/01/29 12:49:41;;;;;;;;;3.00;1.75;;;;;;;;5062111;28;9563;-78
2022/01/29 12:52:09;;;;;;;;;3.25;3.25;;;;;;;;5065552;28;9669;-77
2022/01/29 12:54:36;;;;;;;;;6.00;3.75;;;;;;;;5064349;28;10503;-79
2022/01/29 12:57:04;;;;;;;;;2.50;2.50;;;;;;;;5064635;28;9692;-78
2022/01/29 12:59:34;;;;;;;;;3.00;3.00;;;;;;;;5065407;28;9534;-76
2022/01/29 13:02:05;;;;;;;;;2.00;2.00;;;;;;;;5061241;28;9545;-76
2022/01/29 13:04:34;;;;;;;;;6.00;3.50;;;;;;;;5063099;28;9583;-76
2022/01/29 13:07:03;;;;;;;;;2.25;2.25;;;;;;;;5059186;28;11844;-80
2022/01/29 13:09:34;;;;;;;;;3.25;3.25;;;;;;;;5064974;28;9501;-76
2022/01/29 13:12:04;;;;;;;;;2.25;2.25;;;;;;;;5064297;28;9483;-78
2022/01/29 13:14:32;;;;;;;;;3.00;3.00;;;;;;;;5077447;28;9504;-78
2022/01/29 13:17:01;;;;;;;;;2.50;2.50;;;;;;;;5064494;28;9329;-77
2022/01/29 13:19:31;;;;;;;;;3.00;1.00;;;;;;;;5062543;28;9550;-79
2022/01/29 13:22:01;;;;;;;;;3.00;3.00;;;;;;;;5064152;28;9255;-77
2022/01/29 13:24:34;;;;;;;;;3.00;3.00;;;;;;;;5058631;28;9418;-81
2022/01/29 13:27:07;;;;;;;;;6.50;4.00;;;;;;;;5062288;28;9394;-78
2022/01/29 13:29:39;;;;;;;;;4.00;3.25;;;;;;;;5059641;28;9572;-74
2022/01/29 13:32:09;;;;;;;;;2.00;2.00;;;;;;;;5063432;28;9412;-78
2022/01/29 13:34:37;;;;;;;;;5.00;5.00;;;;;;;;5064839;28;9455;-80
2022/01/29 13:37:30;;;;;;;;;6.50;4.00;;;;;;;;5062936;28;9588;-79
2022/01/29 13:39:58;;;;;;;;;3.75;3.75;;;;;;;;5061545;28;9413;-77
2022/01/29 13:42:28;;;;;;;;;4.50;4.50;;;;;;;;5063829;28;9445;-72
2022/01/29 13:45:10;;;;;;;;;6.00;3.33;;;;;;;;5063695;28;9478;-78
2022/01/29 13:47:39;;;;;;;;;6.33;3.33;;;;;;;;5063725;28;9433;-78
2022/01/29 13:50:26;;;;;;;;;2.33;2.33;;;;;;;;5063006;28;9404;-77
2022/01/29 13:53:15;;;;;;;;;6.67;4.67;;;;;;;;5061488;28;9259;-79
2022/01/29 13:56:00;;;;;;;;;3.00;3.00;;;;;;;;5063799;28;9404;-77
2022/01/29 13:58:28;;;;;;;;;1.67;1.67;;;;;;;;5060539;28;9409;-75
2022/01/29 14:01:02;;;;;;;;;2.00;2.00;;;;;;;;5061699;28;9211;-79
2022/01/29 14:03:43;;;;;;;;;2.33;2.33;;;;;;;;5062953;28;9273;-76
2022/01/29 14:06:22;;;;;;;;;2.00;2.00;;;;;;;;5062298;28;9263;-78
2022/01/29 14:09:23;;;;;;;;;1.00;1.00;;;;;;;;5063841;28;9291;-78
2022/01/29 14:12:11;;;;;;;;;2.00;2.00;;;;;;;;5059784;28;9058;-76
2022/01/29 14:14:44;;;;;;;;;2.00;2.00;;;;;;;;5059499;28;9043;-78
2022/01/29 14:17:13;;;;;;;;;2.00;2.00;;;;;;;;5058431;28;8967;-75
2022/01/29 14:19:42;;;;;;;;;2.33;2.33;;;;;;;;5059156;28;9168;-75
2022/01/29 14:22:09;;;;;;;;;1.00;1.00;;;;;;;;5057480;28;9011;-76
2022/01/29 14:24:40;;;;;;;;;1.00;1.00;;;;;;;;5056935;28;8894;-74
2022/01/29 14:27:08;;;;;;;;;1.00;1.00;;;;;;;;5053819;28;9018;-74
2022/01/29 14:29:37;;;;;;;;;1.00;1.00;;;;;;;;5060798;28;8963;-75
2022/01/29 14:32:05;;;;;;;;;2.00;2.00;;;;;;;;5059443;28;9078;-72
2022/01/29 14:34:32;;;;;;;;;2.00;2.00;;;;;;;;5061544;28;9188;-76
2022/01/29 14:37:00;;;;;;;;;2.00;2.00;;;;;;;;5050631;28;9085;-78
2022/01/29 14:39:28;;;;;;;;;2.00;2.00;;;;;;;;5052136;28;9721;-78
2022/01/29 14:41:59;;;;;;;;;1.00;1.00;;;;;;;;5059471;28;9144;-74
2022/01/29 14:44:29;;;;;;;;;2.00;2.00;;;;;;;;5062134;28;8876;-77
2022/01/29 14:46:56;;;;;;;;;2.00;2.00;;;;;;;;5056047;28;8932;-79
2022/01/29 14:49:25;;;;;;;;;3.00;1.00;;;;;;;;5057648;28;8992;-75
2022/01/29 14:51:53;;;;;;;;;1.33;1.00;;;;;;;;5059189;28;8980;-78
2022/01/29 14:54:21;;;;;;;;;1.00;1.00;;;;;;;;5057165;28;9134;-74
2022/01/29 14:56:50;;;;;;;;;1.00;1.00;;;;;;;;5061182;28;9016;-75
2022/01/29 14:59:19;;;;;;;;;1.67;1.67;;;;;;;;5061222;28;9043;-75